sensor_id;sensor_type;location;lat;lon;timestamp;pressure;altitude;pressure_sealevel;temperature;humidity
1480;BME280;732;51.698;4.886;2023-02-13T00:01:26;103845.31;;;6.26;100.00
1480;BME280;732;51.698;4.886;2023-02-13T00:03:55;103876.50;;;6.36;100.00
1480;BME280;732;51.698;4.886;2023-02-13T00:06:24;103872.97;;;6.35;100.00
1480;BME280;732;51.698;4.886;2023-02-13T00:08:53;103865.88;;;6.33;100.00
1480;BME280;732;51.698;4.886;2023-02-13T00:11:21;103851.06;;;6.33;100.00
1480;BME280;732;51.698;4.886;2023-02-13T00:13:49;103862.34;;;6.32;100.00
1480;BME280;732;51.698;4.886;2023-02-13T00:16:18;103864.44;;;6.38;100.00
1480;BME280;732;51.698;4.886;2023-02-13T00:18:46;103864.25;;;6.35;100.00
1480;BME280;732;51.698;4.886;2023-02-13T00:21:16;103831.97;;;5.97;100.00
1480;BME280;732;51.698;4.886;2023-02-13T00:23:44;103853.84;;;6.10;100.00
1480;BME280;732;51.698;4.886;2023-02-13T00:26:15;103857.50;;;6.25;100.00
1480;BME280;732;51.698;4.886;2023-02-13T00:28:45;103852.88;;;6.21;100.00
1480;BME280;732;51.698;4.886;2023-02-13T00:31:15;103851.84;;;6.19;100.00
1480;BME280;732;51.698;4.886;2023-02-13T00:33:44;103833.50;;;6.31;100.00
1480;BME280;732;51.698;4.886;2023-02-13T00:36:16;103811.75;;;6.19;100.00
1480;BME280;732;51.698;4.886;2023-02-13T00:38:45;103825.31;;;6.26;100.00
1480;BME280;732;51.698;4.886;2023-02-13T00:41:15;103847.06;;;6.25;100.00
1480;BME280;732;51.698;4.886;2023-02-13T00:43:44;103845.13;;;6.23;100.00
1480;BME280;732;51.698;4.886;2023-02-13T00:46:13;103848.66;;;6.23;100.00
1480;BME280;732;51.698;4.886;2023-02-13T00:48:42;103811.13;;;6.10;100.00
1480;BME280;732;51.698;4.886;2023-02-13T00:51:11;103839.22;;;6.25;100.00
1480;BME280;732;51.698;4.886;2023-02-13T00:53:40;103830.84;;;6.18;100.00
1480;BME280;732;51.698;4.886;2023-02-13T00:56:09;103843.72;;;6.28;100.00
1480;BME280;732;51.698;4.886;2023-02-13T00:58:37;103839.41;;;6.28;100.00
1480;BME280;732;51.698;4.886;2023-02-13T01:01:08;103842.63;;;6.37;100.00
1480;BME280;732;51.698;4.886;2023-02-13T01:03:36;103841.13;;;6.41;100.00
1480;BME280;732;51.698;4.886;2023-02-13T01:06:06;103838.41;;;6.39;100.00
1480;BME280;732;51.698;4.886;2023-02-13T01:08:37;103810.31;;;6.24;100.00
1480;BME280;732;51.698;4.886;2023-02-13T01:11:07;103808.34;;;6.20;100.00
1480;BME280;732;51.698;4.886;2023-02-13T01:13:36;103804.31;;;6.25;100.00
1480;BME280;732;51.698;4.886;2023-02-13T01:16:05;103835.78;;;6.39;100.00
1480;BME280;732;51.698;4.886;2023-02-13T01:18:34;103829.13;;;6.31;100.00
1480;BME280;732;51.698;4.886;2023-02-13T01:21:05;103831.25;;;6.37;100.00
1480;BME280;732;51.698;4.886;2023-02-13T01:23:36;103831.25;;;6.37;100.00
1480;BME280;732;51.698;4.886;2023-02-13T01:26:08;103832.47;;;6.29;100.00
1480;BME280;732;51.698;4.886;2023-02-13T01:28:38;103834.56;;;6.21;100.00
1480;BME280;732;51.698;4.886;2023-02-13T01:31:06;103821.00;;;5.89;100.00
1480;BME280;732;51.698;4.886;2023-02-13T01:33:35;103829.75;;;6.14;100.00
1480;BME280;732;51.698;4.886;2023-02-13T01:36:08;103824.72;;;6.17;100.00
1480;BME280;732;51.698;4.886;2023-02-13T01:38:37;103826.13;;;6.12;100.00
1480;BME280;732;51.698;4.886;2023-02-13T01:41:08;103828.97;;;6.04;100.00
1480;BME280;732;51.698;4.886;2023-02-13T01:43:46;103814.38;;;5.94;100.00
1480;BME280;732;51.698;4.886;2023-02-13T01:46:21;103776.84;;;5.81;100.00
1480;BME280;732;51.698;4.886;2023-02-13T01:48:53;103831.16;;;5.98;100.00
1480;BME280;732;51.698;4.886;2023-02-13T01:51:27;103819.50;;;5.93;100.00
1480;BME280;732;51.698;4.886;2023-02-13T01:54:01;103794.72;;;5.99;100.00
1480;BME280;732;51.698;4.886;2023-02-13T01:56:36;103825.81;;;6.21;100.00
1480;BME280;732;51.698;4.886;2023-02-13T01:59:07;103823.09;;;6.19;100.00
1480;BME280;732;51.698;4.886;2023-02-13T02:01:37;103822.28;;;6.20;100.00
1480;BME280;732;51.698;4.886;2023-02-13T02:04:10;103820.78;;;6.24;100.00
1480;BME280;732;51.698;4.886;2023-02-13T02:06:43;103822.28;;;6.20;100.00
1480;BME280;732;51.698;4.886;2023-02-13T02:09:25;103822.28;;;6.20;100.00
1480;BME280;732;51.698;4.886;2023-02-13T02:12:02;103801.31;;;6.07;100.00
1480;BME280;732;51.698;4.886;2023-02-13T02:14:36;103807.44;;;6.19;100.00
1480;BME280;732;51.698;4.886;2023-02-13T02:17:06;103825.41;;;6.28;100.00
1480;BME280;732;51.698;4.886;2023-02-13T02:19:43;103814.97;;;6.28;100.00
1480;BME280;732;51.698;4.886;2023-02-13T02:23:12;103823.22;;;6.34;100.00
1480;BME280;732;51.698;4.886;2023-02-13T02:26:32;103814.09;;;6.40;100.00
1480;BME280;732;51.698;4.886;2023-02-13T02:29:23;103814.19;;;6.42;100.00
1480;BME280;732;51.698;4.886;2023-02-13T02:32:22;103785.41;;;6.16;100.00
1480;BME280;732;51.698;4.886;2023-02-13T02:35:05;103816.97;;;6.32;100.00
1480;BME280;732;51.698;4.886;2023-02-13T02:37:51;103803.50;;;6.26;100.00
1480;BME280;732;51.698;4.886;2023-02-13T02:40:32;103808.22;;;6.31;100.00
1480;BME280;732;51.698;4.886;2023-02-13T02:43:27;103797.56;;;6.15;100.00
1480;BME280;732;51.698;4.886;2023-02-13T02:46:08;103791.25;;;6.25;100.00
1480;BME280;732;51.698;4.886;2023-02-13T02:48:48;103787.81;;;6.26;100.00
1480;BME280;732;51.698;4.886;2023-02-13T02:51:43;103799.19;;;6.39;100.00
1480;BME280;732;51.698;4.886;2023-02-13T02:54:21;103800.69;;;6.10;100.00
1480;BME280;732;51.698;4.886;2023-02-13T02:57:15;103774.53;;;6.10;100.00
1480;BME280;732;51.698;4.886;2023-02-13T02:59:53;103806.75;;;6.22;100.00
1480;BME280;732;51.698;4.886;2023-02-13T03:02:40;103803.38;;;6.11;100.00
1480;BME280;732;51.698;4.886;2023-02-13T03:05:30;103800.78;;;6.24;100.00
1480;BME280;732;51.698;4.886;2023-02-13T03:08:17;103786.44;;;6.18;100.00
1480;BME280;732;51.698;4.886;2023-02-13T03:11:06;103797.75;;;6.18;100.00
1480;BME280;732;51.698;4.886;2023-02-13T03:13:52;103795.22;;;6.07;100.00
1480;BME280;732;51.698;4.886;2023-02-13T03:16:23;103782.22;;;5.95;100.00
1480;BME280;732;51.698;4.886;2023-02-13T03:19:12;103795.22;;;6.07;100.00
1480;BME280;732;51.698;4.886;2023-02-13T03:22:08;103786.16;;;6.02;100.00
1480;BME280;732;51.698;4.886;2023-02-13T03:24:57;103793.50;;;6.07;100.00
1480;BME280;732;51.698;4.886;2023-02-13T03:27:36;103784.63;;;6.05;100.00
1480;BME280;732;51.698;4.886;2023-02-13T03:30:37;103777.19;;;5.98;100.00
1480;BME280;732;51.698;4.886;2023-02-13T03:33:26;103771.16;;;5.86;100.00
1480;BME280;732;51.698;4.886;2023-02-13T03:36:03;103801.78;;;5.89;100.00
1480;BME280;732;51.698;4.886;2023-02-13T03:38:59;103796.47;;;5.87;100.00
1480;BME280;732;51.698;4.886;2023-02-13T03:41:36;103761.03;;;5.66;100.00
1480;BME280;732;51.698;4.886;2023-02-13T03:44:12;103797.16;;;5.85;100.00
1480;BME280;732;51.698;4.886;2023-02-13T03:46:47;103787.91;;;5.77;100.00
1480;BME280;732;51.698;4.886;2023-02-13T03:49:22;103796.38;;;5.86;100.00
1480;BME280;732;51.698;4.886;2023-02-13T03:52:15;103777.44;;;5.63;100.00
1480;BME280;732;51.698;4.886;2023-02-13T03:54:51;103789.00;;;5.67;100.00
1480;BME280;732;51.698;4.886;2023-02-13T03:57:40;103796.09;;;5.70;100.00
1480;BME280;732;51.698;4.886;2023-02-13T04:00:32;103795.47;;;5.60;100.00
1480;BME280;732;51.698;4.886;2023-02-13T04:03:10;103788.72;;;5.51;100.00
1480;BME280;732;51.698;4.886;2023-02-13T04:05:43;103798.91;;;5.59;100.00
1480;BME280;732;51.698;4.886;2023-02-13T04:08:12;103795.97;;;5.55;100.00
1480;BME280;732;51.698;4.886;2023-02-13T04:10:49;103784.25;;;5.61;100.00
1480;BME280;732;51.698;4.886;2023-02-13T04:13:26;103788.03;;;5.53;100.00
1480;BME280;732;51.698;4.886;2023-02-13T04:16:04;103779.03;;;5.37;100.00
1480;BME280;732;51.698;4.886;2023-02-13T04:18:36;103790.81;;;5.32;100.00
1480;BME280;732;51.698;4.886;2023-02-13T04:21:06;103794.84;;;5.15;100.00
1480;BME280;732;51.698;4.886;2023-02-13T04:23:36;103801.16;;;4.94;100.00
1480;BME280;732;51.698;4.886;2023-02-13T04:26:12;103797.22;;;4.76;100.00
1480;BME280;732;51.698;4.886;2023-02-13T04:28:41;103792.81;;;4.63;100.00
1480;BME280;732;51.698;4.886;2023-02-13T04:31:11;103793.75;;;4.52;100.00
1480;BME280;732;51.698;4.886;2023-02-13T04:33:39;103760.47;;;4.15;100.00
1480;BME280;732;51.698;4.886;2023-02-13T04:36:08;103788.06;;;4.35;100.00
1480;BME280;732;51.698;4.886;2023-02-13T04:38:37;103783.25;;;4.18;100.00
1480;BME280;732;51.698;4.886;2023-02-13T04:41:06;103788.59;;;4.08;100.00
1480;BME280;732;51.698;4.886;2023-02-13T04:43:35;103792.19;;;3.98;100.00
1480;BME280;732;51.698;4.886;2023-02-13T04:46:04;103797.72;;;3.91;100.00
1480;BME280;732;51.698;4.886;2023-02-13T04:48:32;103787.66;;;3.96;100.00
1480;BME280;732;51.698;4.886;2023-02-13T04:51:03;103788.88;;;3.89;100.00
1480;BME280;732;51.698;4.886;2023-02-13T04:53:31;103757.91;;;3.59;100.00
1480;BME280;732;51.698;4.886;2023-02-13T04:56:00;103790.56;;;3.77;100.00
1480;BME280;732;51.698;4.886;2023-02-13T04:58:30;103754.25;;;3.45;100.00
1480;BME280;732;51.698;4.886;2023-02-13T05:00:58;103794.00;;;3.54;100.00
1480;BME280;732;51.698;4.886;2023-02-13T05:03:27;103780.94;;;3.43;100.00
1480;BME280;732;51.698;4.886;2023-02-13T05:05:55;103791.81;;;3.49;100.00
1480;BME280;732;51.698;4.886;2023-02-13T05:08:23;103791.72;;;3.47;100.00
1480;BME280;732;51.698;4.886;2023-02-13T05:10:52;103758.88;;;3.16;100.00
1480;BME280;732;51.698;4.886;2023-02-13T05:13:20;103796.91;;;3.26;100.00
1480;BME280;732;51.698;4.886;2023-02-13T05:15:50;103791.09;;;3.18;100.00
1480;BME280;732;51.698;4.886;2023-02-13T05:18:19;103789.66;;;3.22;100.00
1480;BME280;732;51.698;4.886;2023-02-13T05:20:48;103795.13;;;3.25;100.00
1480;BME280;732;51.698;4.886;2023-02-13T05:23:37;103797.59;;;3.02;100.00
1480;BME280;732;51.698;4.886;2023-02-13T05:26:04;103796.34;;;3.08;100.00
1480;BME280;732;51.698;4.886;2023-02-13T05:28:32;103788.72;;;3.10;100.00
1480;BME280;732;51.698;4.886;2023-02-13T05:31:20;103756.84;;;2.91;100.00
1480;BME280;732;51.698;4.886;2023-02-13T05:33:48;103781.75;;;2.99;100.00
1480;BME280;732;51.698;4.886;2023-02-13T05:36:17;103777.50;;;2.89;100.00
1480;BME280;732;51.698;4.886;2023-02-13T05:38:45;103785.53;;;2.92;100.00
1480;BME280;732;51.698;4.886;2023-02-13T05:41:14;103791.53;;;2.91;100.00
1480;BME280;732;51.698;4.886;2023-02-13T05:43:42;103789.22;;;2.84;100.00
1480;BME280;732;51.698;4.886;2023-02-13T05:46:11;103778.19;;;2.76;100.00
1480;BME280;732;51.698;4.886;2023-02-13T05:48:41;103782.63;;;2.78;100.00
1480;BME280;732;51.698;4.886;2023-02-13T05:51:09;103776.69;;;2.68;100.00
1480;BME280;732;51.698;4.886;2023-02-13T05:53:38;103770.59;;;2.68;100.00
1480;BME280;732;51.698;4.886;2023-02-13T05:56:07;103784.84;;;2.73;100.00
1480;BME280;732;51.698;4.886;2023-02-13T05:58:35;103794.72;;;2.77;100.00
1480;BME280;732;51.698;4.886;2023-02-13T06:01:04;103795.50;;;2.76;100.00
1480;BME280;732;51.698;4.886;2023-02-13T06:03:33;103792.91;;;2.76;100.00
1480;BME280;732;51.698;4.886;2023-02-13T06:06:03;103786.28;;;2.69;100.00
1480;BME280;732;51.698;4.886;2023-02-13T06:08:32;103777.03;;;2.51;100.00
1480;BME280;732;51.698;4.886;2023-02-13T06:11:00;103789.06;;;2.61;100.00
1480;BME280;732;51.698;4.886;2023-02-13T06:13:29;103799.88;;;2.55;100.00
1480;BME280;732;51.698;4.886;2023-02-13T06:15:58;103800.28;;;2.50;100.00
1480;BME280;732;51.698;4.886;2023-02-13T06:18:26;103800.94;;;2.47;100.00
1480;BME280;732;51.698;4.886;2023-02-13T06:20:55;103799.78;;;2.44;100.00
1480;BME280;732;51.698;4.886;2023-02-13T06:23:25;103800.28;;;2.40;100.00
1480;BME280;732;51.698;4.886;2023-02-13T06:25:54;103776.03;;;2.29;100.00
1480;BME280;732;51.698;4.886;2023-02-13T06:28:22;103775.03;;;2.27;100.00
1480;BME280;732;51.698;4.886;2023-02-13T06:30:51;103790.44;;;2.36;100.00
1480;BME280;732;51.698;4.886;2023-02-13T06:33:19;103796.16;;;2.32;100.00
1480;BME280;732;51.698;4.886;2023-02-13T06:35:47;103792.28;;;2.27;100.00
1480;BME280;732;51.698;4.886;2023-02-13T06:38:16;103794.09;;;2.28;100.00
1480;BME280;732;51.698;4.886;2023-02-13T06:40:46;103799.69;;;2.22;100.00
1480;BME280;732;51.698;4.886;2023-02-13T06:43:16;103795.63;;;2.26;100.00
1480;BME280;732;51.698;4.886;2023-02-13T06:45:45;103796.19;;;2.22;100.00
1480;BME280;732;51.698;4.886;2023-02-13T06:48:14;103792.56;;;2.20;100.00
1480;BME280;732;51.698;4.886;2023-02-13T06:50:42;103801.63;;;2.25;100.00
1480;BME280;732;51.698;4.886;2023-02-13T06:53:11;103778.03;;;2.02;100.00
1480;BME280;732;51.698;4.886;2023-02-13T06:55:39;103800.34;;;2.20;100.00
1480;BME280;732;51.698;4.886;2023-02-13T06:58:09;103809.69;;;2.18;100.00
1480;BME280;732;51.698;4.886;2023-02-13T07:00:37;103808.66;;;2.06;100.00
1480;BME280;732;51.698;4.886;2023-02-13T07:03:05;103808.38;;;2.13;100.00
1480;BME280;732;51.698;4.886;2023-02-13T07:05:39;103789.97;;;2.00;100.00
1480;BME280;732;51.698;4.886;2023-02-13T07:08:08;103794.66;;;1.94;100.00
1480;BME280;732;51.698;4.886;2023-02-13T07:10:37;103808.53;;;1.94;100.00
1480;BME280;732;51.698;4.886;2023-02-13T07:13:09;103799.19;;;1.96;100.00
1480;BME280;732;51.698;4.886;2023-02-13T07:15:37;103818.00;;;2.04;100.00
1480;BME280;732;51.698;4.886;2023-02-13T07:18:06;103821.41;;;2.03;100.00
1480;BME280;732;51.698;4.886;2023-02-13T07:20:34;103823.47;;;1.97;100.00
1480;BME280;732;51.698;4.886;2023-02-13T07:23:04;103800.47;;;1.81;100.00
1480;BME280;732;51.698;4.886;2023-02-13T07:25:33;103832.19;;;1.97;100.00
1480;BME280;732;51.698;4.886;2023-02-13T07:28:03;103808.03;;;1.88;100.00
1480;BME280;732;51.698;4.886;2023-02-13T07:30:34;103830.22;;;2.05;100.00
1480;BME280;732;51.698;4.886;2023-02-13T07:33:04;103804.66;;;1.89;100.00
1480;BME280;732;51.698;4.886;2023-02-13T07:35:32;103825.69;;;2.02;100.00
1480;BME280;732;51.698;4.886;2023-02-13T07:38:02;103822.03;;;2.00;100.00
1480;BME280;732;51.698;4.886;2023-02-13T07:40:31;103831.50;;;2.10;100.00
1480;BME280;732;51.698;4.886;2023-02-13T07:42:59;103800.00;;;1.95;100.00
1480;BME280;732;51.698;4.886;2023-02-13T07:45:28;103838.91;;;2.25;100.00
1480;BME280;732;51.698;4.886;2023-02-13T07:47:58;103837.47;;;2.29;100.00
1480;BME280;732;51.698;4.886;2023-02-13T07:50:27;103839.41;;;2.21;100.00
1480;BME280;732;51.698;4.886;2023-02-13T07:52:57;103840.41;;;2.33;100.00
1480;BME280;732;51.698;4.886;2023-02-13T07:55:26;103820.56;;;2.34;100.00
1480;BME280;732;51.698;4.886;2023-02-13T07:57:55;103813.28;;;2.40;100.00
1480;BME280;732;51.698;4.886;2023-02-13T08:00:24;103809.78;;;2.39;100.00
1480;BME280;732;51.698;4.886;2023-02-13T08:02:52;103830.63;;;2.61;100.00
1480;BME280;732;51.698;4.886;2023-02-13T08:05:22;103844.09;;;2.67;100.00
1480;BME280;732;51.698;4.886;2023-02-13T08:07:51;103845.75;;;2.76;100.00
1480;BME280;732;51.698;4.886;2023-02-13T08:10:20;103850.59;;;2.72;100.00
1480;BME280;732;51.698;4.886;2023-02-13T08:13:06;103827.97;;;2.71;100.00
1480;BME280;732;51.698;4.886;2023-02-13T08:15:36;103846.78;;;2.89;100.00
1480;BME280;732;51.698;4.886;2023-02-13T08:18:04;103856.53;;;2.91;100.00
1480;BME280;732;51.698;4.886;2023-02-13T08:20:34;103857.00;;;2.97;100.00
1480;BME280;732;51.698;4.886;2023-02-13T08:23:04;103850.50;;;3.02;100.00
1480;BME280;732;51.698;4.886;2023-02-13T08:25:33;103836.34;;;2.99;100.00
1480;BME280;732;51.698;4.886;2023-02-13T08:28:02;103861.59;;;3.21;100.00
1480;BME280;732;51.698;4.886;2023-02-13T08:30:31;103860.91;;;3.24;100.00
1480;BME280;732;51.698;4.886;2023-02-13T08:32:59;103853.00;;;3.22;100.00
1480;BME280;732;51.698;4.886;2023-02-13T08:35:27;103864.31;;;3.23;100.00
1480;BME280;732;51.698;4.886;2023-02-13T08:38:02;103830.72;;;3.04;100.00
1480;BME280;732;51.698;4.886;2023-02-13T08:40:31;103867.44;;;3.40;100.00
1480;BME280;732;51.698;4.886;2023-02-13T08:43:00;103869.28;;;3.41;100.00
1480;BME280;732;51.698;4.886;2023-02-13T08:45:30;103860.00;;;3.45;100.00
1480;BME280;732;51.698;4.886;2023-02-13T08:47:59;103873.81;;;3.65;100.00
1480;BME280;732;51.698;4.886;2023-02-13T08:50:30;103874.13;;;3.58;100.00
1480;BME280;732;51.698;4.886;2023-02-13T08:53:01;103860.13;;;3.68;100.00
1480;BME280;732;51.698;4.886;2023-02-13T08:55:29;103878.63;;;3.83;100.00
1480;BME280;732;51.698;4.886;2023-02-13T08:57:59;103871.19;;;3.99;100.00
1480;BME280;732;51.698;4.886;2023-02-13T09:00:29;103873.34;;;3.93;100.00
1480;BME280;732;51.698;4.886;2023-02-13T09:03:00;103869.41;;;3.98;100.00
1480;BME280;732;51.698;4.886;2023-02-13T09:05:30;103860.25;;;4.03;100.00
1480;BME280;732;51.698;4.886;2023-02-13T09:08:01;103884.69;;;4.26;100.00
1480;BME280;732;51.698;4.886;2023-02-13T09:10:31;103856.66;;;4.24;100.00
1480;BME280;732;51.698;4.886;2023-02-13T09:13:00;103877.13;;;4.41;100.00
1480;BME280;732;51.698;4.886;2023-02-13T09:15:28;103890.19;;;4.52;100.00
1480;BME280;732;51.698;4.886;2023-02-13T09:17:57;103888.91;;;4.47;100.00
1480;BME280;732;51.698;4.886;2023-02-13T09:20:25;103878.94;;;4.53;100.00
1480;BME280;732;51.698;4.886;2023-02-13T09:22:54;103880.09;;;4.80;100.00
1480;BME280;732;51.698;4.886;2023-02-13T09:25:25;103874.63;;;4.89;100.00
1480;BME280;732;51.698;4.886;2023-02-13T09:27:54;103884.75;;;4.96;100.00
1480;BME280;732;51.698;4.886;2023-02-13T09:30:22;103864.19;;;4.89;100.00
1480;BME280;732;51.698;4.886;2023-02-13T09:32:52;103880.66;;;5.11;100.00
1480;BME280;732;51.698;4.886;2023-02-13T09:35:22;103883.00;;;5.19;100.00
1480;BME280;732;51.698;4.886;2023-02-13T09:37:50;103879.78;;;5.35;100.00
1480;BME280;732;51.698;4.886;2023-02-13T09:40:27;103883.63;;;5.40;100.00
1480;BME280;732;51.698;4.886;2023-02-13T09:43:07;103850.91;;;5.45;100.00
1480;BME280;732;51.698;4.886;2023-02-13T09:45:41;103882.34;;;5.83;100.00
1480;BME280;732;51.698;4.886;2023-02-13T09:48:19;103877.91;;;6.06;100.00
1480;BME280;732;51.698;4.886;2023-02-13T09:50:52;103882.72;;;6.00;100.00
1480;BME280;732;51.698;4.886;2023-02-13T09:53:23;103881.53;;;6.08;100.00
1480;BME280;732;51.698;4.886;2023-02-13T09:56:03;103868.06;;;6.27;100.00
1480;BME280;732;51.698;4.886;2023-02-13T09:58:43;103879.25;;;6.50;100.00
1480;BME280;732;51.698;4.886;2023-02-13T10:01:25;103877.47;;;6.76;100.00
1480;BME280;732;51.698;4.886;2023-02-13T10:04:19;103866.19;;;6.77;100.00
1480;BME280;732;51.698;4.886;2023-02-13T10:06:57;103847.88;;;6.64;100.00
1480;BME280;732;51.698;4.886;2023-02-13T10:09:41;103826.84;;;6.75;100.00
1480;BME280;732;51.698;4.886;2023-02-13T10:12:37;103830.34;;;7.02;100.00
1480;BME280;732;51.698;4.886;2023-02-13T10:15:20;103835.47;;;7.13;100.00
1480;BME280;732;51.698;4.886;2023-02-13T10:17:57;103834.69;;;7.42;100.00
1480;BME280;732;51.698;4.886;2023-02-13T10:20:31;103840.38;;;7.63;100.00
1480;BME280;732;51.698;4.886;2023-02-13T10:23:17;103824.94;;;7.67;100.00
1480;BME280;732;51.698;4.886;2023-02-13T10:25:53;103824.25;;;7.84;100.00
1480;BME280;732;51.698;4.886;2023-02-13T10:28:33;103823.69;;;7.75;100.00
1480;BME280;732;51.698;4.886;2023-02-13T10:31:08;103821.00;;;7.88;100.00
1480;BME280;732;51.698;4.886;2023-02-13T10:33:43;103826.63;;;8.09;100.00
1480;BME280;732;51.698;4.886;2023-02-13T10:36:18;103822.31;;;8.24;100.00
1480;BME280;732;51.698;4.886;2023-02-13T10:38:56;103828.63;;;8.42;100.00
1480;BME280;732;51.698;4.886;2023-02-13T10:41:39;103831.03;;;8.68;100.00
1480;BME280;732;51.698;4.886;2023-02-13T10:44:31;103814.34;;;8.82;100.00
1480;BME280;732;51.698;4.886;2023-02-13T10:47:14;103814.50;;;9.00;100.00
1480;BME280;732;51.698;4.886;2023-02-13T10:50:05;103809.94;;;9.12;100.00
1480;BME280;732;51.698;4.886;2023-02-13T10:52:49;103809.66;;;9.22;100.00
1480;BME280;732;51.698;4.886;2023-02-13T10:55:54;103773.09;;;9.10;100.00
1480;BME280;732;51.698;4.886;2023-02-13T10:58:39;103804.81;;;9.46;100.00
1480;BME280;732;51.698;4.886;2023-02-13T11:01:17;103771.72;;;9.49;100.00
1480;BME280;732;51.698;4.886;2023-02-13T11:03:59;103776.72;;;9.61;100.00
1480;BME280;732;51.698;4.886;2023-02-13T11:06:29;103786.13;;;9.89;100.00
1480;BME280;732;51.698;4.886;2023-02-13T11:08:58;103780.28;;;9.95;100.00
1480;BME280;732;51.698;4.886;2023-02-13T11:11:31;103777.69;;;10.12;100.00
1480;BME280;732;51.698;4.886;2023-02-13T11:14:12;103756.28;;;10.05;100.00
1480;BME280;732;51.698;4.886;2023-02-13T11:16:52;103767.06;;;10.27;100.00
1480;BME280;732;51.698;4.886;2023-02-13T11:19:27;103753.25;;;10.31;100.00
1480;BME280;732;51.698;4.886;2023-02-13T11:22:01;103730.00;;;10.40;100.00
1480;BME280;732;51.698;4.886;2023-02-13T11:24:30;103758.06;;;10.57;100.00
1480;BME280;732;51.698;4.886;2023-02-13T11:27:02;103740.06;;;10.49;100.00
1480;BME280;732;51.698;4.886;2023-02-13T11:29:36;103730.28;;;10.64;100.00
1480;BME280;732;51.698;4.886;2023-02-13T11:32:22;103743.53;;;11.02;100.00
1480;BME280;732;51.698;4.886;2023-02-13T11:34:51;103727.66;;;11.00;100.00
1480;BME280;732;51.698;4.886;2023-02-13T11:37:24;103733.56;;;11.14;100.00
1480;BME280;732;51.698;4.886;2023-02-13T11:39:55;103713.09;;;11.08;100.00
1480;BME280;732;51.698;4.886;2023-02-13T11:42:28;103734.25;;;11.29;100.00
1480;BME280;732;51.698;4.886;2023-02-13T11:45:00;103712.03;;;11.42;100.00
1480;BME280;732;51.698;4.886;2023-02-13T11:47:38;103737.56;;;11.63;100.00
1480;BME280;732;51.698;4.886;2023-02-13T11:50:21;103726.38;;;11.69;100.00
1480;BME280;732;51.698;4.886;2023-02-13T11:52:56;103696.59;;;11.51;100.00
1480;BME280;732;51.698;4.886;2023-02-13T11:55:30;103698.19;;;11.66;100.00
1480;BME280;732;51.698;4.886;2023-02-13T11:58:02;103706.03;;;11.85;100.00
1480;BME280;732;51.698;4.886;2023-02-13T12:00:35;103695.41;;;11.84;100.00
1480;BME280;732;51.698;4.886;2023-02-13T12:03:27;103683.38;;;11.90;100.00
1480;BME280;732;51.698;4.886;2023-02-13T12:06:02;103681.50;;;12.08;100.00
1480;BME280;732;51.698;4.886;2023-02-13T12:08:34;103707.41;;;12.39;100.00
1480;BME280;732;51.698;4.886;2023-02-13T12:11:20;103703.09;;;12.41;100.00
1480;BME280;732;51.698;4.886;2023-02-13T12:13:50;103674.41;;;12.28;100.00
1480;BME280;732;51.698;4.886;2023-02-13T12:16:29;103682.66;;;12.58;100.00
1480;BME280;732;51.698;4.886;2023-02-13T12:19:06;103699.03;;;12.93;100.00
1480;BME280;732;51.698;4.886;2023-02-13T12:21:53;103694.88;;;13.00;100.00
1480;BME280;732;51.698;4.886;2023-02-13T12:24:48;103676.69;;;13.07;100.00
1480;BME280;732;51.698;4.886;2023-02-13T12:27:29;103682.16;;;13.13;100.00
1480;BME280;732;51.698;4.886;2023-02-13T12:30:36;103667.50;;;13.22;100.00
1480;BME280;732;51.698;4.886;2023-02-13T12:33:29;103675.69;;;13.29;100.00
1480;BME280;732;51.698;4.886;2023-02-13T12:36:12;103668.94;;;13.37;100.00
1480;BME280;732;51.698;4.886;2023-02-13T12:38:58;103666.06;;;13.31;100.00
1480;BME280;732;51.698;4.886;2023-02-13T12:41:38;103669.91;;;13.39;100.00
1480;BME280;732;51.698;4.886;2023-02-13T12:44:59;103670.47;;;13.54;100.00
1480;BME280;732;51.698;4.886;2023-02-13T12:47:33;103656.44;;;13.57;100.00
1480;BME280;732;51.698;4.886;2023-02-13T12:50:27;103657.69;;;13.68;100.00
1480;BME280;732;51.698;4.886;2023-02-13T12:53:26;103617.38;;;13.48;100.00
1480;BME280;732;51.698;4.886;2023-02-13T12:56:13;103652.75;;;13.77;100.00
1480;BME280;732;51.698;4.886;2023-02-13T12:59:00;103645.56;;;13.73;100.00
1480;BME280;732;51.698;4.886;2023-02-13T13:01:56;103641.25;;;13.76;100.00
1480;BME280;732;51.698;4.886;2023-02-13T13:04:42;103633.66;;;13.87;100.00
1480;BME280;732;51.698;4.886;2023-02-13T13:07:34;103631.47;;;14.00;100.00
1480;BME280;732;51.698;4.886;2023-02-13T13:10:39;103634.13;;;14.00;100.00
1480;BME280;732;51.698;4.886;2023-02-13T13:13:23;103634.88;;;13.96;100.00
1480;BME280;732;51.698;4.886;2023-02-13T13:15:59;103624.94;;;13.89;100.00
1480;BME280;732;51.698;4.886;2023-02-13T13:18:43;103610.75;;;13.87;100.00
1480;BME280;732;51.698;4.886;2023-02-13T13:21:25;103634.03;;;13.97;100.00
1480;BME280;732;51.698;4.886;2023-02-13T13:24:06;103631.69;;;14.06;100.00
1480;BME280;732;51.698;4.886;2023-02-13T13:26:44;103625.97;;;14.21;100.00
1480;BME280;732;51.698;4.886;2023-02-13T13:29:20;103609.38;;;14.27;100.00
1480;BME280;732;51.698;4.886;2023-02-13T13:31:54;103609.56;;;14.33;100.00
1480;BME280;732;51.698;4.886;2023-02-13T13:34:25;103595.31;;;14.28;100.00
1480;BME280;732;51.698;4.886;2023-02-13T13:36:59;103617.97;;;14.46;100.00
1480;BME280;732;51.698;4.886;2023-02-13T13:39:42;103621.09;;;14.61;100.00
1480;BME280;732;51.698;4.886;2023-02-13T13:42:17;103616.50;;;14.56;100.00
1480;BME280;732;51.698;4.886;2023-02-13T13:45:16;103613.63;;;14.48;100.00
1480;BME280;732;51.698;4.886;2023-02-13T13:48:01;103613.50;;;14.45;100.00
1480;BME280;732;51.698;4.886;2023-02-13T13:50:38;103599.81;;;14.60;100.00
1480;BME280;732;51.698;4.886;2023-02-13T13:53:11;103614.69;;;14.84;100.00
1480;BME280;732;51.698;4.886;2023-02-13T13:56:01;103602.03;;;14.74;100.00
1480;BME280;732;51.698;4.886;2023-02-13T13:58:42;103586.75;;;14.66;100.00
1480;BME280;732;51.698;4.886;2023-02-13T14:01:31;103599.47;;;14.77;100.00
1480;BME280;732;51.698;4.886;2023-02-13T14:04:02;103599.00;;;14.92;100.00